Terminal Aerodrome Forecast
Issued by NWS

Home | Current Version | Previous Version | Text Only | Print | Product List | Glossary On
Versions: 1 2 3 4 5 6 7 8 9 10 11 12 13 14 15 16 17
000
FTUS45 KRIW 241736
TAFCPR
TAF
KCPR 241736Z 2418/2518 05014KT P6SM -RA OVC012
      TEMPO 2418/2421 2SM -SN OVC004
     FM242100 03013G23KT 4SM -RASN OVC005
     FM250600 36007KT 6SM -RASN OVC005=

USA.gov is the U.S. government's official web portal to all federal, state and local government web resources and services.